• Join FlightAware (Why Join?)
  • Login
  • US Flag 
03:13PM EDT


 

Airport Tracker/Info


-or-


 

Live Flight TrackerFlight Track Log ✈ FLG4262 ✈ 13-Nov-2013 ✈ KBGM - KDTW

Flight Track Log - Related Links

Times and Time Zones

All times are in EST time to prevent confusion due to time zone crossing. See the FLG4262 flight status page for this flight to view local times or setup timezone preferences in your user account.

Time Position Orientation Groundspeed Altitude Reporting Facility
EST Latitude Longitude Course Direction KTS MPH feet Rate Location/Type
05:24PM 42.2508 -76.0683 294° West 157 181 6,200  Level New York Center
05:25PM 42.2722 -76.1483 290° West 196 226 8,800 2,640 Climbing New York Center
05:26PM 42.2969 -76.2403 290° West 233 268 11,500 2,100 Climbing New York Center
05:27PM 42.3222 -76.3292 291° West 259 298 13,000 1,800 Climbing New York Center
05:28PM 42.3525 -76.4356 291° West 292 336 15,200 1,680 Climbing New York Center
05:30PM 42.4106 -76.6458 291° West 344 396 17,700 1,560 Climbing Cleveland Center
05:31PM 42.4436 -76.7711 290° West 352 405 19,700 1,920 Climbing Cleveland Center
05:32PM 42.4756 -76.8917 290° West 346 398 21,700 1,080 Climbing Cleveland Center
05:33PM 42.5164 -77.0425 290° West 357 411 22,000 900 Climbing Cleveland Center
05:34PM 42.5453 -77.1833 286° West 387 445 23,600 1,260 Climbing Cleveland Center
05:35PM 42.5533 -77.3261 274° West 383 441 24,700 900 Climbing Cleveland Center
05:36PM 42.5625 -77.4800 275° West 387 445 25,500 720 Climbing Cleveland Center
05:37PM 42.5703 -77.6269 274° West 391 450 26,200 660 Climbing Cleveland Center
05:38PM 42.5792 -77.7772 275° West 396 456 26,900 360 Climbing Cleveland Center
05:39PM 42.5881 -77.9325 274° West 404 465 27,000 420 Climbing Cleveland Center
05:40PM 42.5964 -78.0908 274° West 418 481 27,800 480 Climbing Cleveland Center
05:41PM 42.6039 -78.2456 274° West 412 474 28,000 60 Climbing Cleveland Center
05:42PM 42.6142 -78.4353 274° West 420 483 28,000  Level Cleveland Center
05:43PM 42.6219 -78.5989 274° West 435 501 28,000  Level Cleveland Center
05:44PM 42.6300 -78.7589 274° West 429 494 28,000  Level Cleveland Center
05:46PM 42.6361 -78.9194 273° West 427 491 28,000  Level Cleveland Center
05:47PM 42.6431 -79.0811 273° West 430 495 28,000  Level Cleveland Center
05:48PM 42.6519 -79.2750 274° West 430 495 28,000  Level Cleveland Center
05:49PM 42.6578 -79.4369 273° West 431 496 28,000  Level Cleveland Center
05:50PM 42.6642 -79.5994 273° West 431 496 28,000  Level Cleveland Center
05:51PM 42.6706 -79.7617 273° West 433 498 28,000  Level Cleveland Center
05:52PM 42.6764 -79.9231 273° West 430 495 28,000  Level Cleveland Center
05:53PM 42.6814 -80.1036 272° West 433 498 28,000  Level Cleveland Center
05:54PM 42.6875 -80.2683 273° West 435 501 28,000  Level Cleveland Center
05:55PM 42.6919 -80.4322 272° West 432 497 28,000  Level Cleveland Center
05:56PM 42.6975 -80.5978 273° West 435 501 28,000 -240 Level Cleveland Center
05:57PM 42.7014 -80.7642 272° West 439 505 27,600 -1,020 Descending Cleveland Center
05:58PM 42.6989 -80.9561 269° West 435 501 25,900 -1,500 Descending Cleveland Center
05:59PM 42.6800 -81.1133 261° West 422 486 24,500 -1,380 Descending Cleveland Center
06:00PM 42.6625 -81.2653 261° West 408 470 23,100 -1,380 Descending Cleveland Center
06:01PM 42.6453 -81.4161 261° West 402 463 21,700 -1,380 Descending Cleveland Center
06:02PM 42.6281 -81.5600 261° West 390 449 20,300 -1,440 Descending Cleveland Center
06:03PM 42.6111 -81.7011 261° West 379 436 18,800 -1,320 Descending Cleveland Center
06:04PM 42.5939 -81.8531 261° West 372 428 17,600 -1,260 Descending Cleveland Center
06:05PM 42.5769 -81.9864 260° West 362 417 16,200 -1,200 Descending Cleveland Center
06:06PM 42.5617 -82.1144 261° West 350 403 15,200 -1,020 Descending Cleveland Center
06:06PM 42.5575 -82.1594 263° West 345 397 14,900 -1,020 Descending Cleveland Center
06:07PM 42.5453 -82.2456 259° West 343 395 14,300 -780 Descending Cleveland Center
06:07PM 42.5447 -82.2392 97° East 341 392 14,300 -1,020 Level Cleveland Center
06:08PM 42.5303 -82.3767 262° West 346 398 13,300 -1,200 Descending Cleveland Center
06:08PM 42.5258 -82.3936 250° West 344 396 13,100 -1,020 Descending Cleveland Center
06:09PM 42.5150 -82.5050 263° West 345 397 12,300 -1,020 Descending Cleveland Center
06:09PM 42.5094 -82.5219 246° West 346 398 12,100 -840 Descending Cleveland Center
06:10PM 42.4792 -82.6250 248° West 316 364 11,500 -720 Descending Cleveland Center
06:10PM 42.4744 -82.6342 235° Southwest 327 376 11,400 -1,080 Descending Cleveland Center
06:11PM 42.4450 -82.7250 246° West 282 325 10,400 -1,080 Descending Cleveland Center
06:11PM 42.4403 -82.7300 218° Southwest 296 341 10,300 -1,320 Descending Cleveland Center
06:12PM 42.4161 -82.8031 246° West 246 283 9,200 -1,380 Descending Cleveland Center
06:12PM 42.4094 -82.8164 236° Southwest 266 306 8,900 -1,620 Descending Cleveland Center
06:13PM 42.4039 -82.8864 264° West 222 255 7,600 -1,500 Descending Cleveland Center
06:13PM 42.4044 -82.8989 273° West 233 268 7,400 -1,140 Descending Cleveland Center
06:14PM 42.4106 -82.9664 277° West 199 229 6,500 -1,200 Descending Cleveland Center
06:14PM 42.4114 -82.9883 273° West 205 236 6,200 -720 Descending Cleveland Center
06:15PM 42.4181 -83.0325 282° West 176 203 5,800 -600 Descending Cleveland Center
06:16PM 42.4200 -83.0533 277° West 185 213 5,600 -720 Descending Cleveland Center
06:16PM 42.4108 -83.1019 256° West 176 203 5,100 -540 Descending Cleveland Center
06:17PM 42.4047 -83.1150 238° Southwest 176 203 5,100  Level Cleveland Center
06:17PM 42.3894 -83.1642 247° West 170 196 5,100  Level Cleveland Center
06:18PM 42.3850 -83.1711 229° Southwest 166 191 5,100 -420 Level Cleveland Center
06:18PM 42.3644 -83.2144 237° Southwest 156 180 4,700 -420 Descending Cleveland Center
06:19PM 42.3597 -83.2175 206° Southwest 153 176 4,700 -1,080 Level Cleveland Center
06:19PM 42.3372 -83.2417 218° Southwest 125 144 3,700 -1,080 Descending Cleveland Center
06:20PM 42.3308 -83.2478 215° Southwest 135 155 3,600 -720 Descending Cleveland Center
06:20PM 42.3081 -83.2686 214° Southwest 123 142 3,000 -900 Descending Cleveland Center
06:21PM 42.2956 -83.2769 206° Southwest 127 146 2,700 -720 Descending Cleveland Center
06:21PM 42.2814 -83.2875 209° Southwest 105 121 2,300 -600 Descending Cleveland Center
06:22PM 42.2708 -83.2944 206° Southwest 113 130 2,100 -600 Descending Cleveland Center
06:22PM 42.2547 -83.3064 209° Southwest 109 125 1,700 -720 Descending Cleveland Center
06:23PM 42.2447 -83.3142 210° Southwest 109 125 1,400 -720 Descending Cleveland Center
06:23PM 42.2281 -83.3278 211° Southwest 114 131 1,000 -420 Descending Cleveland Center
06:24PM 42.2139 -83.3375 207° Southwest 109 125 1,000  Level Cleveland Center
06:26PM 42.2000 -83.3500 236° Southwest  Level FlightAware Approximate
06:33PM 42.2124 -83.3534 236° Southwest  Level Estimated